Weather observations for the past three days for
Ardmore, Ardmore Municipal Airport
Metric (Imperial)
Date Time (cdt) Wind (kph) Vis. (km) Weather Sky Cond. Temperature (ºC) Relative Humidity Wind Chill (°C) Heat Index (°C) Pressure Precipitation (cm)
Air Dwpt 6 hour altimeter (cm) sea level (mb) 1 hr 3 hr 6 hr
Max. Min.
03 20:55 S 11 16.09 Fair CLR 18 8 52% 76.05 0.0
03 20:35 S 13 16.09 Fair CLR 19 8 49% 76.05 0.0
03 20:15 S 15 16.09 Fair CLR 21 8 43% 76.02 0.0
03 19:55 S 11 16.09 Fair CLR 22 8 41% 76.02 0.0
03 19:35 S 15 16.09 Fair CLR 24 7 34% 25 76.02 0.0
03 19:15 S 15 G 26 16.09 Fair CLR 25 8 34% 26 76.05 0.0
03 18:55 S 19 16.09 Fair CLR 26 7 30% 26 76.05 0.0
03 18:35 S 22 G 33 16.09 Fair CLR 26 7 30% 26 76.05 0.0
03 18:15 S 24 16.09 Fair CLR 27 7 28% 26 76.07 0.0
03 17:35 S 24 16.09 A Few Clouds FEW090 27 8 30% 26 76.07 0.0
03 17:15 SW 19 G 31 16.09 Fair CLR 28 7 26% 27 76.07 0.0
03 16:55 SW 22 16.09 Fair CLR 28 8 28% 27 76.1 0.0
03 15:50 SW 17 G 30 16.09 A Few Clouds FEW080 28 9 30% 27 76.23 0.0
03 14:50 SW 17 G 30 16.09 A Few Clouds FEW080 28 9 30% 27 76.23 0.0
03 13:50 SW 20 16.09 Fair CLR 27 10 34% 27 76.3 0.0
03 12:50 SW 19 G 28 16.09 Fair CLR 27 12 39% 27 76.38 0.0
03 11:50 SW 22 G 37 16.09 Fair CLR 25 11 42% 26 76.45 0.0
03 10:50 SW 22 G 33 16.09 Fair CLR 23 11 47% 76.45 0.0
03 09:50 SW 15 16.09 Fair CLR 20 12 60% 76.48 0.0
03 08:50 SW 15 16.09 Fair CLR 20 12 60% 76.48 0.0
03 06:50 Calm 16.09 Fair CLR 9 9 100% 76.45 0.0
03 06:35 Calm 14.48 Fair CLR 9 9 100% 76.43 0.0
03 06:15 Calm 3.22 Fog/Mist CLR 8 8 100% 76.43 0.0
03 05:55 Calm 12.87 Fair CLR 9 9 100% 76.43 0.0
03 05:35 Calm 16.09 Fair CLR 9 9 100% 76.43 0.0
03 05:15 Calm 16.09 Fair CLR 9 9 100% 76.43 0.0
03 04:55 Calm 16.09 Fair CLR 8 8 100% 76.43 0.0
03 04:35 Calm 16.09 Fair CLR 9 9 100% 76.43 0.0
03 04:15 Calm 16.09 Fair CLR 9 9 100% 76.45 0.0
03 03:55 Calm 16.09 Fair CLR 9 9 100% 76.45 0.0
03 03:35 Calm 16.09 Fair CLR 10 10 100% 76.45 0.0
03 03:15 Calm 16.09 Fair CLR 10 9 94% 76.45 0.0
03 02:55 Calm 16.09 Fair CLR 10 10 100% 76.45 0.0
03 02:35 Calm 16.09 Fair CLR 10 10 100% 76.48 0.0
03 02:15 Calm 16.09 Fair CLR 10 10 100% 76.48 0.0
03 01:55 Calm 16.09 Fair CLR 10 10 100% 76.48 0.0
03 01:35 Calm 16.09 Fair CLR 10 9 94% 76.48 0.0
03 01:15 Calm 16.09 Fair CLR 11 10 94% 76.48 0.0
03 00:55 Calm 16.09 Fair CLR 11 10 94% 76.48 0.0
03 00:35 Calm 16.09 Fair CLR 11 11 100% 76.48 0.0
03 00:15 Calm 16.09 Fair CLR 11 10 94% 76.45 0.0
02 23:55 Calm 16.09 Fair CLR 11 10 94% 76.45 0.0
02 23:35 Calm 16.09 Fair CLR 12 11 94% 76.45 0.0
02 23:15 Calm 16.09 Fair CLR 12 12 100% 76.45 0.0
02 22:55 Calm 16.09 Fair CLR 12 11 94% 76.45 0.0
02 22:35 Calm 16.09 Fair CLR 12 11 94% 76.45 0.0
02 22:15 Calm 16.09 Fair CLR 13 11 88% 76.43 0.0
02 21:55 Calm 16.09 Fair CLR 14 12 88% 76.4 0.0
02 21:35 Calm 16.09 Fair CLR 13 12 94% 76.4 0.0
02 21:15 Calm 16.09 Fair CLR 15 11 77% 76.38 0.0
02 20:55 Calm 16.09 Fair CLR 17 11 68% 76.38 0.0
02 20:35 Calm 16.09 Fair CLR 18 12 68% 76.35 0.0
02 20:15 Calm 16.09 Fair CLR 18 11 64% 76.35 0.0
02 19:55 Calm 16.09 Fair CLR 20 11 56% 76.35 0.0
02 19:35 Calm 16.09 Fair CLR 21 11 53% 76.35 0.0
02 19:15 Calm 16.09 Fair CLR 22 10 47% 76.33 0.0
02 18:55 Calm 16.09 Partly Cloudy SCT100 23 10 44% 76.35 0.0
02 18:35 Calm 16.09 Thunderstorm in Vicinity FEW080 BKN100 23 10 44% 76.35 0.0
02 18:15 Calm 16.09 A Few Clouds FEW080 FEW110 23 7 36% 76.35 0.0
02 17:55 Calm 16.09 Fair CLR 24 8 36% 25 76.35 0.0
02 17:35 Calm 16.09 Mostly Cloudy BKN110 24 7 34% 25 76.35 0.0
02 17:15 Calm 16.09 Overcast BKN070 BKN090 OVC110 23 8 38% 76.38 0.0
02 15:50 Calm 16.09 Partly Cloudy SCT075 25 9 36% 26 76.43 0.0
02 14:50 W 19 16.09 Partly Cloudy SCT085 24 8 36% 25 76.48 0.0
02 13:50 NW 7 G 19 16.09 NULL NULL 23 8 38% 76.53 0.0
02 12:50 Vrbl 11 G 20 16.09 Fair CLR 23 8 38% 76.61 0.0
02 11:50 Calm 16.09 Fair CLR 21 6 38% 76.66 0.0
02 10:50 Calm 16.09 Fair CLR 20 5 38% 76.66 0.0
02 09:50 Calm 16.09 Fair CLR 17 7 52% 76.66 0.0
02 08:50 Calm 16.09 Fair CLR 13 9 77% 76.68 0.0
02 07:50 Calm 16.09 Fair CLR 9 8 94% 76.66 0.0
02 06:50 Calm 16.09 Fair CLR 6 5 93% 76.56 0.0
02 06:35 Calm 16.09 Fair CLR 6 5 93% 76.53 0.0
02 06:15 Calm 16.09 Fair CLR 6 5 93% 76.5 0.0
02 05:55 Calm 16.09 Fair CLR 7 5 87% 76.5 0.0
02 05:35 Calm 16.09 Fair CLR 6 6 100% 76.48 0.0
02 05:15 Calm 16.09 Fair CLR 7 6 93% 76.48 0.0
02 04:55 Calm 16.09 Fair CLR 7 6 93% 76.45 0.0
02 04:35 Calm 16.09 Fair CLR 7 7 100% 76.45 0.0
02 04:15 Calm 16.09 Fair CLR 7 7 100% 76.45 0.0
02 03:55 Calm 16.09 Fair CLR 7 6 93% 76.45 0.0
02 03:35 Calm 16.09 Fair CLR 8 7 93% 76.43 0.0
02 03:15 Calm 16.09 Fair CLR 8 6 87% 76.43 0.0
02 02:55 Calm 16.09 Fair CLR 8 6 87% 76.45 0.0
02 02:35 Calm 16.09 Fair CLR 9 6 82% 76.45 0.0
02 02:15 Calm 16.09 Fair CLR 8 7 93% 76.45 0.0
02 01:55 Calm 16.09 Fair CLR 8 6 87% 76.45 0.0
02 01:35 Calm 16.09 Fair CLR 10 7 82% 76.45 0.0
02 01:15 Calm 16.09 Fair CLR 9 7 87% 76.48 0.0
02 00:55 Calm 16.09 Fair CLR 10 7 82% 76.48 0.0
02 00:35 Calm 16.09 Fair CLR 10 7 82% 76.48 0.0
02 00:15 Calm 16.09 Fair CLR 12 7 72% 76.48 0.0
01 23:55 Calm 16.09 A Few Clouds FEW120 14 6 59% 76.45 0.0
01 23:35 Calm 16.09 Mostly Cloudy BKN120 14 7 63% 76.45 0.0
01 23:15 Calm 16.09 Partly Cloudy SCT120 14 7 63% 76.43 0.0
01 21:50 Calm 16.09 Fair CLR 15 8 63% 76.4 0.0
01 20:50 Calm 16.09 Fair CLR 16 7 55% 76.35 0.0
01 19:50 Calm 16.09 Fair CLR 18 6 46% 76.28 0.0
01 18:50 Calm 16.09 Fair CLR 19 6 43% 76.25 0.0
01 17:50 NE 17 16.09 Fair CLR 20 6 40% 76.15 0.0
01 16:50 NE 13 16.09 Partly Cloudy SCT060 21 7 40% 76.15 0.0
01 15:50 NE 20 16.09 Partly Cloudy SCT060 22 9 44% 76.17 0.0
01 13:50 NE 19 16.09 Fair CLR 22 9 44% 76.25 0.0
01 12:50 E 19 16.09 Fair CLR 21 8 43% 76.33 0.0
01 11:50 E 24 16.09 Fair CLR 20 7 43% 76.4 0.0
01 10:50 E 24 G 33 16.09 Fair CLR 19 8 49% 76.35 0.0
01 09:50 E 15 16.09 Fair CLR 17 10 64% 76.35 0.0
01 08:50 Calm 16.09 Fair CLR 14 10 77% 76.38 0.0
01 07:50 Calm 16.09 Fair CLR 12 10 88% 76.3 0.0
01 06:55 Calm 16.09 Fair CLR 10 9 94% 76.3 0.0
01 06:50 Calm 16.09 Fair CLR 10 9 94% 76.28 0.0
01 06:35 Calm 16.09 Fair CLR 10 9 94% 76.25 0.0
01 06:15 Calm 16.09 Fair CLR 11 10 94% 76.25 0.0
01 05:55 Calm 16.09 Fair CLR 11 10 94% 76.28 0.0
01 05:35 Calm 16.09 A Few Clouds FEW120 11 10 94% 76.25 0.0
01 05:15 Calm 16.09 A Few Clouds FEW110 11 10 94% 76.25 0.0
01 04:55 Calm 16.09 Partly Cloudy SCT110 12 10 88% 76.25 0.0
01 04:35 Calm 16.09 Overcast OVC110 12 11 94% 76.25 0.0
01 04:15 Calm 16.09 Mostly Cloudy BKN110 12 11 94% 76.25 0.0
01 03:55 Calm 16.09 Overcast OVC110 12 11 94% 76.25 0.0
01 03:35 Calm 16.09 Overcast OVC110 13 11 88% 76.2 0.0
01 03:15 Calm 16.09 Overcast OVC110 13 11 88% 76.23 0.0
01 02:55 Calm 16.09 Overcast OVC110 13 11 88% 76.25 0.0
01 02:35 Calm 16.09 Overcast FEW060 OVC110 13 11 88% 76.25 0.0
01 02:15 Calm 16.09 Overcast OVC100 13 12 94% 76.28 0.0
01 01:55 Calm 16.09 Overcast OVC100 14 12 88% 76.3 0.0
01 01:35 Calm 16.09 Overcast OVC095 14 12 88% 76.28 0.0
01 01:15 Calm 16.09 Overcast FEW048 OVC090 14 12 88% 76.3 0.0
01 00:55 Calm 16.09 Overcast FEW046 OVC085 14 12 88% 76.3 0.0
01 00:35 Calm 16.09 Overcast OVC085 15 12 82% 76.28 0.0
01 00:15 Calm 16.09 Overcast BKN080 OVC085 14 12 88% 76.28 0.0
30 23:55 Calm 16.09 Overcast OVC080 15 12 82% 76.28 0.0
30 23:35 Calm 16.09 Overcast FEW048 FEW055 OVC080 15 12 82% 76.28 0.0
30 23:15 Calm 14.48 Mostly Cloudy FEW040 SCT048 BKN055 15 12 82% 76.3 0.0
30 22:55 Calm 14.48 Mostly Cloudy FEW042 SCT050 BKN065 15 11 77% 76.3 0.0
30 21:50 Calm 16.09 Overcast OVC055 16 11 72% 76.25 0.0
Date Time (cdt) Wind (kph) Vis. (km) Weather Sky Cond. Air Dwpt Max. Min. Relative Humidity Wind Chill (°C) Heat Index (°C) altimeter (cm) sea level (mb) 1 hr 3 hr 6 hr
6 hour
Temperature (ºC) Pressure Precipitation (cm)